Time;durP1;ratioP1;P1;durP2;ratioP2;P2;SDS_P1;SDS_P2;PMS_P1;PMS_P2;Temp;Humidity;BMP_temperature;BMP_pressure;BME280_temperature;BME280_humidity;BME280_pressure;Samples;Min_cycle;Max_cycle;Signal;HPM_P1;HPM_P2
2022/12/28 00:01:33;;;;;;;2.83;1.70;;;;;;;;;;4958452;28;20422;-63
2022/12/28 00:04:05;;;;;;;2.72;1.30;;;;;;;;;;4990773;28;20058;-63
2022/12/28 00:06:36;;;;;;;4.22;1.42;;;;;;;;;;5008279;28;20060;-63
2022/12/28 00:09:06;;;;;;;3.70;1.27;;;;;;;;;;4997062;28;20568;-64
2022/12/28 00:11:36;;;;;;;3.13;1.33;;;;;;;;;;5066978;28;20059;-63
2022/12/28 00:14:06;;;;;;;3.80;1.30;;;;;;;;;;5070141;28;20056;-63
2022/12/28 00:16:39;;;;;;;4.43;1.33;;;;;;;;;;5053710;28;20056;-64
2022/12/28 00:19:14;;;;;;;3.35;1.50;;;;;;;;;;5072336;28;20051;-63
2022/12/28 00:21:45;;;;;;;4.47;1.08;;;;;;;;;;5071731;28;20059;-63
2022/12/28 00:24:19;;;;;;;3.58;1.67;;;;;;;;;;5071861;28;20480;-64
2022/12/28 00:26:49;;;;;;;2.72;1.42;;;;;;;;;;5072007;28;20055;-63
2022/12/28 00:29:19;;;;;;;5.15;1.60;;;;;;;;;;5068908;28;20052;-64
2022/12/28 00:31:50;;;;;;;4.63;1.60;;;;;;;;;;5029395;28;20509;-63
2022/12/28 00:34:24;;;;;;;4.63;1.90;;;;;;;;;;5000860;28;20049;-64
2022/12/28 00:36:54;;;;;;;3.78;1.60;;;;;;;;;;5049319;28;20068;-64
2022/12/28 00:39:41;;;;;;;4.75;1.55;;;;;;;;;;4983293;28;20049;-63
2022/12/28 00:42:15;;;;;;;2.63;1.38;;;;;;;;;;4999982;28;20045;-64
2022/12/28 00:44:46;;;;;;;2.50;1.40;;;;;;;;;;5049251;28;20053;-64
2022/12/28 00:47:17;;;;;;;4.13;2.08;;;;;;;;;;5009243;28;20050;-64
2022/12/28 00:49:47;;;;;;;4.13;1.27;;;;;;;;;;4960475;28;20054;-64
2022/12/28 00:52:17;;;;;;;3.10;1.30;;;;;;;;;;4993455;28;20068;-64
2022/12/28 00:54:47;;;;;;;2.00;1.00;;;;;;;;;;4957318;28;20073;-64
2022/12/28 00:57:17;;;;;;;4.13;1.20;;;;;;;;;;4950736;28;20054;-64
2022/12/28 00:59:47;;;;;;;3.10;1.38;;;;;;;;;;4931364;29;20059;-65
2022/12/28 01:02:17;;;;;;;2.95;1.20;;;;;;;;;;4885129;29;20059;-64
2022/12/28 01:04:48;;;;;;;;;;;;;;;;;;4931884;29;20550;-63
2022/12/28 01:07:19;;;;;;;5.47;1.00;;;;;;;;;;4938421;28;19922;-63
2022/12/28 01:09:49;;;;;;;5.05;1.15;;;;;;;;;;4943561;28;20427;-64
2022/12/28 01:12:19;;;;;;;2.78;2.15;;;;;;;;;;4914559;29;20088;-63
2022/12/28 01:14:49;;;;;;;3.45;1.40;;;;;;;;;;4934378;28;20047;-63
2022/12/28 01:17:20;;;;;;;2.53;1.27;;;;;;;;;;4950474;28;20059;-64
2022/12/28 01:19:50;;;;;;;4.18;1.55;;;;;;;;;;4918575;28;20547;-63
2022/12/28 01:22:22;;;;;;;2.95;1.33;;;;;;;;;;4950867;28;20074;-64
2022/12/28 01:24:52;;;;;;;4.82;1.30;;;;;;;;;;4905071;29;20056;-64
2022/12/28 01:27:22;;;;;;;3.33;1.27;;;;;;;;;;4904119;29;20047;-64
2022/12/28 01:29:52;;;;;;;3.00;1.17;;;;;;;;;;4947323;29;20066;-64
2022/12/28 01:32:23;;;;;;;2.58;1.25;;;;;;;;;;4903632;29;20048;-62
2022/12/28 01:34:53;;;;;;;2.55;1.25;;;;;;;;;;4881196;29;20065;-63
2022/12/28 01:37:23;;;;;;;2.83;1.20;;;;;;;;;;4900287;29;20072;-62
2022/12/28 01:39:52;;;;;;;2.47;1.10;;;;;;;;;;4912621;29;20048;-64
2022/12/28 01:42:23;;;;;;;3.72;1.30;;;;;;;;;;4897339;29;20152;-64
2022/12/28 01:44:53;;;;;;;2.75;1.17;;;;;;;;;;4873344;29;20781;-64
2022/12/28 01:47:32;;;;;;;5.72;1.73;;;;;;;;;;4871509;29;20441;-64
2022/12/28 01:50:10;;;;;;;1.98;1.23;;;;;;;;;;4961899;28;20051;-64
2022/12/28 01:53:03;;;;;;;2.67;1.25;;;;;;;;;;4954065;29;20527;-64
2022/12/28 01:55:39;;;;;;;1.90;1.00;;;;;;;;;;4954314;29;20518;-64
2022/12/28 01:58:18;;;;;;;4.55;1.20;;;;;;;;;;4934479;29;20532;-64
2022/12/28 02:00:49;;;;;;;3.10;1.38;;;;;;;;;;4915669;29;20619;-64
2022/12/28 02:03:23;;;;;;;2.92;1.70;;;;;;;;;;4899919;29;20060;-64
2022/12/28 02:05:59;;;;;;;4.32;1.35;;;;;;;;;;4919661;29;20091;-64
2022/12/28 02:09:08;;;;;;;7.03;1.70;;;;;;;;;;4935034;29;20095;-64
2022/12/28 02:11:39;;;;;;;4.75;1.50;;;;;;;;;;4860058;29;20057;-64
2022/12/28 02:14:12;;;;;;;3.50;1.30;;;;;;;;;;4861566;29;20054;-64
2022/12/28 02:16:42;;;;;;;3.15;1.70;;;;;;;;;;4865148;29;20068;-64
2022/12/28 02:19:18;;;;;;;3.53;1.42;;;;;;;;;;4896763;29;20068;-64
2022/12/28 02:21:55;;;;;;;2.85;1.23;;;;;;;;;;4881207;29;20063;-64
2022/12/28 02:24:34;;;;;;;4.13;1.30;;;;;;;;;;4896720;29;20087;-64
2022/12/28 02:27:24;;;;;;;3.13;1.30;;;;;;;;;;4896586;29;20195;-64
2022/12/28 02:30:05;;;;;;;2.88;1.60;;;;;;;;;;4901090;29;20048;-64
2022/12/28 02:32:53;;;;;;;5.18;1.30;;;;;;;;;;4898197;29;20060;-64
2022/12/28 02:35:29;;;;;;;5.40;1.70;;;;;;;;;;4891602;29;20056;-64
2022/12/28 02:38:33;;;;;;;2.70;1.58;;;;;;;;;;4944396;28;20054;-64
2022/12/28 02:41:10;;;;;;;5.22;1.92;;;;;;;;;;4939367;28;20503;-64
2022/12/28 02:43:40;;;;;;;6.43;1.13;;;;;;;;;;4939530;28;20067;-63
2022/12/28 02:52:21;;;;;;;4.60;1.40;;;;;;;;;;4990959;28;20055;-64
2022/12/28 02:58:16;;;;;;;3.47;1.50;;;;;;;;;;4990803;28;20058;-64
2022/12/28 03:00:46;;;;;;;7.30;1.80;;;;;;;;;;4971106;28;20055;-64
2022/12/28 03:03:24;;;;;;;3.28;1.83;;;;;;;;;;4971151;28;20054;-64
2022/12/28 03:09:02;;;;;;;6.22;1.60;;;;;;;;;;4951715;29;19922;-64
2022/12/28 03:11:48;;;;;;;4.22;1.63;;;;;;;;;;4951778;29;20059;-64
2022/12/28 03:14:54;;;;;;;5.65;2.25;;;;;;;;;;4913374;29;20048;-64
2022/12/28 03:31:48;;;;;;;9.40;3.78;;;;;;;;;;4839403;29;20050;-64
2022/12/28 03:34:18;;;;;;;10.20;4.03;;;;;;;;;;4857959;29;20060;-64
2022/12/28 03:37:01;;;;;;;8.27;3.53;;;;;;;;;;4857886;29;20080;-64
2022/12/28 03:39:50;;;;;;;10.38;3.92;;;;;;;;;;4845387;29;20061;-64
2022/12/28 03:45:36;;;;;;;8.20;3.33;;;;;;;;;;4809608;29;20632;-64
2022/12/28 03:48:17;;;;;;;6.53;2.90;;;;;;;;;;4839441;29;20069;-64
2022/12/28 03:50:50;;;;;;;8.40;2.90;;;;;;;;;;4857850;29;20057;-64
2022/12/28 03:53:23;;;;;;;;;;;;;;;;;;4878916;29;20066;-64
2022/12/28 03:56:10;;;;;;;7.03;2.95;;;;;;;;;;4951340;28;19929;-64
2022/12/28 03:58:41;;;;;;;10.70;3.10;;;;;;;;;;4970942;28;20074;-64
2022/12/28 04:01:11;;;;;;;7.90;2.78;;;;;;;;;;4970988;28;20058;-64
2022/12/28 04:03:42;;;;;;;4.78;2.72;;;;;;;;;;4932433;29;20050;-64
2022/12/28 04:06:17;;;;;;;11.30;3.17;;;;;;;;;;4888899;29;20056;-64
2022/12/28 04:08:48;;;;;;;8.13;2.50;;;;;;;;;;4890543;29;20070;-64
2022/12/28 04:11:17;;;;;;;3.92;2.00;;;;;;;;;;4886364;29;20054;-64
2022/12/28 04:13:52;;;;;;;5.00;2.75;;;;;;;;;;4885569;29;20064;-64
2022/12/28 04:16:23;;;;;;;6.22;1.75;;;;;;;;;;4902102;29;20053;-64
2022/12/28 04:18:53;;;;;;;4.43;2.10;;;;;;;;;;4875948;29;20084;-64
2022/12/28 04:21:23;;;;;;;5.88;2.08;;;;;;;;;;4913314;29;20059;-64
2022/12/28 04:23:54;;;;;;;8.25;2.25;;;;;;;;;;4875515;29;20636;-64
2022/12/28 04:26:26;;;;;;;7.15;2.65;;;;;;;;;;4875688;29;20049;-63
2022/12/28 04:29:00;;;;;;;4.47;2.17;;;;;;;;;;4875151;29;20061;-63
2022/12/28 04:31:49;;;;;;;5.32;2.13;;;;;;;;;;4876163;29;20057;-64
2022/12/28 04:34:20;;;;;;;4.15;2.25;;;;;;;;;;4894033;29;20049;-64
2022/12/28 04:36:56;;;;;;;6.55;2.25;;;;;;;;;;4899020;29;20533;-64
2022/12/28 04:39:28;;;;;;;7.30;2.60;;;;;;;;;;4904240;29;20451;-64
2022/12/28 04:42:17;;;;;;;3.78;2.38;;;;;;;;;;4912893;29;20520;-64
2022/12/28 04:44:47;;;;;;;7.55;2.83;;;;;;;;;;4912973;29;20064;-64
2022/12/28 04:47:17;;;;;;;4.90;2.10;;;;;;;;;;4897091;29;20060;-64
2022/12/28 04:49:49;;;;;;;7.32;2.35;;;;;;;;;;4884484;29;20059;-64
2022/12/28 04:52:21;;;;;;;7.50;2.58;;;;;;;;;;4882441;29;20072;-64
2022/12/28 04:54:50;;;;;;;6.22;2.45;;;;;;;;;;4887399;29;20048;-64
2022/12/28 04:57:20;;;;;;;8.23;2.40;;;;;;;;;;4893739;29;20064;-64
2022/12/28 04:59:50;;;;;;;4.55;2.03;;;;;;;;;;4909545;29;20064;-64
2022/12/28 05:02:20;;;;;;;10.05;2.78;;;;;;;;;;4943691;29;20062;-64
2022/12/28 05:04:50;;;;;;;7.10;3.25;;;;;;;;;;4935345;29;20059;-64
2022/12/28 05:07:19;;;;;;;9.15;3.42;;;;;;;;;;4966016;28;20050;-64
2022/12/28 05:09:49;;;;;;;6.97;2.53;;;;;;;;;;4939002;28;20054;-64
2022/12/28 05:12:19;;;;;;;8.15;2.60;;;;;;;;;;4958285;28;20059;-64
2022/12/28 05:14:49;;;;;;;10.30;3.00;;;;;;;;;;4973803;28;20058;-64
2022/12/28 05:17:19;;;;;;;6.18;2.50;;;;;;;;;;4966033;28;20059;-64
2022/12/28 05:19:49;;;;;;;8.55;2.55;;;;;;;;;;4989686;28;20070;-64
2022/12/28 05:22:18;;;;;;;7.68;2.60;;;;;;;;;;4941251;28;20058;-64
2022/12/28 05:24:48;;;;;;;7.10;2.85;;;;;;;;;;5005822;28;20058;-64
2022/12/28 05:27:18;;;;;;;4.50;2.10;;;;;;;;;;5022162;28;20061;-64
2022/12/28 05:29:48;;;;;;;6.07;1.77;;;;;;;;;;4989536;28;20530;-64
2022/12/28 05:32:17;;;;;;;4.97;2.00;;;;;;;;;;5005482;28;20616;-64
2022/12/28 05:34:47;;;;;;;6.38;2.10;;;;;;;;;;5046532;28;20830;-64
2022/12/28 05:37:16;;;;;;;4.38;1.85;;;;;;;;;;5071363;28;20040;-64
2022/12/28 05:39:50;;;;;;;4.57;1.90;;;;;;;;;;5071236;28;20051;-64
2022/12/28 05:42:20;;;;;;;5.63;1.95;;;;;;;;;;5035848;28;20060;-63
2022/12/28 05:44:49;;;;;;;9.13;2.38;;;;;;;;;;5035684;28;20056;-64
2022/12/28 05:47:19;;;;;;;3.80;2.08;;;;;;;;;;5071008;28;20415;-63
2022/12/28 05:49:48;;;;;;;6.80;2.00;;;;;;;;;;5035729;28;20052;-64
2022/12/28 05:52:18;;;;;;;4.13;1.52;;;;;;;;;;5071129;28;20037;-64
2022/12/28 05:54:48;;;;;;;6.88;1.90;;;;;;;;;;5068584;28;20503;-64
2022/12/28 05:57:18;;;;;;;5.35;2.38;;;;;;;;;;5071178;28;20045;-64
2022/12/28 05:59:47;;;;;;;6.78;2.15;;;;;;;;;;5035440;28;20071;-63
2022/12/28 06:02:17;;;;;;;4.22;1.80;;;;;;;;;;5052390;28;20045;-63
2022/12/28 06:04:54;;;;;;;3.72;1.75;;;;;;;;;;5070740;28;20041;-64
2022/12/28 06:07:24;;;;;;;3.92;2.00;;;;;;;;;;5070975;28;20099;-63
2022/12/28 06:09:53;;;;;;;4.70;1.95;;;;;;;;;;5018226;28;20049;-63
2022/12/28 06:12:23;;;;;;;5.10;2.10;;;;;;;;;;5068609;28;20496;-63
2022/12/28 06:14:53;;;;;;;6.05;2.03;;;;;;;;;;5068243;28;20059;-63
2022/12/28 06:17:24;;;;;;;4.18;1.73;;;;;;;;;;5034739;28;20049;-64
2022/12/28 06:19:54;;;;;;;4.68;1.95;;;;;;;;;;5035958;28;20056;-64
2022/12/28 06:22:23;;;;;;;4.70;2.30;;;;;;;;;;5022177;28;20424;-64
2022/12/28 06:24:53;;;;;;;8.40;2.47;;;;;;;;;;5071952;28;20524;-63
2022/12/28 06:27:23;;;;;;;5.32;1.95;;;;;;;;;;5071885;28;20424;-63
2022/12/28 06:29:53;;;;;;;4.93;2.10;;;;;;;;;;5071725;28;20060;-64
2022/12/28 06:32:23;;;;;;;8.27;2.72;;;;;;;;;;5055099;28;20058;-63
2022/12/28 06:34:53;;;;;;;3.80;1.77;;;;;;;;;;5071709;28;20086;-63
2022/12/28 06:37:22;;;;;;;5.18;1.95;;;;;;;;;;5071778;28;20060;-64
2022/12/28 06:39:52;;;;;;;4.95;1.90;;;;;;;;;;5071640;28;20095;-64
2022/12/28 06:42:21;;;;;;;5.63;1.98;;;;;;;;;;5071699;28;20052;-64
2022/12/28 06:44:51;;;;;;;5.70;2.10;;;;;;;;;;5071314;28;20053;-64
2022/12/28 06:47:21;;;;;;;6.88;2.60;;;;;;;;;;5046627;28;20416;-63
2022/12/28 06:49:50;;;;;;;5.80;2.53;;;;;;;;;;5087443;28;20056;-63
2022/12/28 06:52:20;;;;;;;7.28;2.70;;;;;;;;;;5054918;28;20630;-63
2022/12/28 06:54:49;;;;;;;6.82;2.70;;;;;;;;;;5071335;28;20407;-63
2022/12/28 06:57:19;;;;;;;6.15;2.30;;;;;;;;;;5054363;28;20535;-63
2022/12/28 06:59:49;;;;;;;10.38;2.30;;;;;;;;;;5071255;28;20052;-63
2022/12/28 07:02:18;;;;;;;5.20;2.70;;;;;;;;;;5071277;28;20060;-62
2022/12/28 07:04:48;;;;;;;7.45;2.88;;;;;;;;;;5021585;28;20060;-63
2022/12/28 07:07:18;;;;;;;9.95;2.83;;;;;;;;;;5047163;28;20042;-63
2022/12/28 07:09:47;;;;;;;5.47;2.70;;;;;;;;;;4982174;28;20525;-63
2022/12/28 07:12:17;;;;;;;8.40;3.08;;;;;;;;;;5030753;28;20541;-63
2022/12/28 07:14:47;;;;;;;7.30;3.13;;;;;;;;;;4998427;28;20064;-63
2022/12/28 07:17:16;;;;;;;8.13;3.80;;;;;;;;;;5014263;28;20076;-63
2022/12/28 07:19:46;;;;;;;6.55;3.20;;;;;;;;;;5030968;28;20064;-65
2022/12/28 07:22:15;;;;;;;11.48;3.33;;;;;;;;;;5039271;28;20544;-63
2022/12/28 07:24:45;;;;;;;10.93;3.25;;;;;;;;;;5051003;28;20519;-63
2022/12/28 07:27:15;;;;;;;11.00;3.75;;;;;;;;;;5050548;28;20064;-64
2022/12/28 07:29:45;;;;;;;21.45;4.93;;;;;;;;;;5050581;28;20060;-63
2022/12/28 07:32:15;;;;;;;11.35;4.70;;;;;;;;;;5049414;28;20095;-64
2022/12/28 07:34:44;;;;;;;12.57;4.72;;;;;;;;;;5050841;28;20055;-64
2022/12/28 07:37:14;;;;;;;14.20;4.72;;;;;;;;;;5050594;28;20056;-64
2022/12/28 07:39:43;;;;;;;9.68;4.13;;;;;;;;;;5030479;28;20497;-64
2022/12/28 07:42:13;;;;;;;13.57;2.60;;;;;;;;;;5010620;28;20600;-64
2022/12/28 07:44:44;;;;;;;9.82;3.15;;;;;;;;;;5027062;28;20056;-64
2022/12/28 07:47:16;;;;;;;7.07;2.60;;;;;;;;;;5050291;28;20053;-64
2022/12/28 07:49:46;;;;;;;4.65;1.73;;;;;;;;;;5050418;28;20057;-63
2022/12/28 07:52:16;;;;;;;7.15;2.50;;;;;;;;;;5000631;28;20060;-64
2022/12/28 07:54:45;;;;;;;3.83;1.85;;;;;;;;;;5050494;28;20184;-64
2022/12/28 07:57:15;;;;;;;3.35;1.85;;;;;;;;;;5050079;28;20068;-64
2022/12/28 07:59:44;;;;;;;3.83;1.90;;;;;;;;;;5000796;28;20060;-64
2022/12/28 08:02:14;;;;;;;3.83;1.83;;;;;;;;;;5050208;28;20053;-64
2022/12/28 08:04:44;;;;;;;4.93;2.20;;;;;;;;;;5050180;28;20052;-64
2022/12/28 08:07:20;;;;;;;8.85;1.98;;;;;;;;;;5050168;28;20057;-65
2022/12/28 08:09:49;;;;;;;5.43;2.25;;;;;;;;;;5049939;28;20044;-64
2022/12/28 08:12:20;;;;;;;6.50;2.20;;;;;;;;;;5049779;28;20060;-64
2022/12/28 08:14:49;;;;;;;10.35;2.30;;;;;;;;;;5050102;28;20060;-64
2022/12/28 08:17:19;;;;;;;6.63;2.30;;;;;;;;;;5036091;28;20428;-64
2022/12/28 08:19:48;;;;;;;4.15;2.20;;;;;;;;;;5009946;28;20528;-64
2022/12/28 08:22:19;;;;;;;6.53;2.42;;;;;;;;;;5069745;28;20052;-64
2022/12/28 08:24:49;;;;;;;7.50;2.38;;;;;;;;;;5069686;28;20547;-63
2022/12/28 08:27:19;;;;;;;7.72;2.03;;;;;;;;;;5020096;28;20061;-63
2022/12/28 08:29:48;;;;;;;4.32;2.05;;;;;;;;;;5069514;28;20056;-64
2022/12/28 08:32:18;;;;;;;5.65;2.42;;;;;;;;;;5085997;28;20427;-67
2022/12/28 08:34:47;;;;;;;5.47;2.83;;;;;;;;;;5069390;28;20048;-67
2022/12/28 08:37:19;;;;;;;4.53;2.00;;;;;;;;;;5069351;28;20052;-69
2022/12/28 08:39:48;;;;;;;4.05;2.03;;;;;;;;;;5069329;28;20539;-65
2022/12/28 08:42:18;;;;;;;3.83;1.90;;;;;;;;;;5061386;28;20513;-65
2022/12/28 08:44:47;;;;;;;6.43;2.08;;;;;;;;;;4996559;28;20054;-68
2022/12/28 08:47:17;;;;;;;6.72;2.08;;;;;;;;;;5029513;28;20064;-67
2022/12/28 08:49:47;;;;;;;7.70;2.20;;;;;;;;;;4963797;28;20061;-66
2022/12/28 08:52:17;;;;;;;5.95;2.05;;;;;;;;;;5012945;28;20060;-66
2022/12/28 08:54:47;;;;;;;5.38;1.85;;;;;;;;;;5029238;28;20056;-65
2022/12/28 08:57:16;;;;;;;5.70;2.08;;;;;;;;;;4988270;28;20611;-65
2022/12/28 08:59:46;;;;;;;7.20;2.67;;;;;;;;;;5049093;28;20052;-65
2022/12/28 09:02:15;;;;;;;8.20;3.20;;;;;;;;;;5029020;28;20050;-66
2022/12/28 09:04:45;;;;;;;8.50;2.60;;;;;;;;;;5029063;28;20425;-67
2022/12/28 09:07:15;;;;;;;6.10;2.83;;;;;;;;;;5029077;28;20061;-68
2022/12/28 09:09:45;;;;;;;6.80;2.25;;;;;;;;;;5029150;28;20489;-66
2022/12/28 09:12:14;;;;;;;6.78;2.60;;;;;;;;;;5029065;28;20045;-65
2022/12/28 09:14:44;;;;;;;5.13;2.63;;;;;;;;;;4957402;28;20434;-65
2022/12/28 09:17:13;;;;;;;5.35;2.53;;;;;;;;;;5005810;28;20487;-66
2022/12/28 09:19:44;;;;;;;7.68;2.90;;;;;;;;;;4997601;28;20057;-65
2022/12/28 09:22:13;;;;;;;8.98;2.95;;;;;;;;;;5009394;28;20049;-64
2022/12/28 09:24:43;;;;;;;7.45;3.00;;;;;;;;;;5041263;28;20046;-64
2022/12/28 09:27:12;;;;;;;7.05;3.25;;;;;;;;;;5028578;28;20073;-65
2022/12/28 09:29:42;;;;;;;5.35;2.90;;;;;;;;;;5028645;28;20060;-65
2022/12/28 09:32:11;;;;;;;6.75;3.15;;;;;;;;;;5028991;28;20068;-64
2022/12/28 09:34:41;;;;;;;6.97;2.65;;;;;;;;;;5028574;28;20505;-64
2022/12/28 09:37:11;;;;;;;6.50;3.40;;;;;;;;;;5029017;28;20636;-64
2022/12/28 09:39:40;;;;;;;7.60;3.13;;;;;;;;;;5028792;28;20057;-64
2022/12/28 09:42:20;;;;;;;6.40;3.67;;;;;;;;;;5028892;28;20117;-64
2022/12/28 09:45:04;;;;;;;5.40;3.03;;;;;;;;;;5028724;28;20081;-64
2022/12/28 09:47:37;;;;;;;5.63;2.90;;;;;;;;;;5028768;28;20054;-64
2022/12/28 09:50:16;;;;;;;5.10;3.00;;;;;;;;;;4995675;28;20505;-64
2022/12/28 09:53:14;;;;;;;4.95;3.15;;;;;;;;;;5041695;28;20062;-64
2022/12/28 09:56:07;;;;;;;6.78;3.15;;;;;;;;;;5018150;28;20679;-64
2022/12/28 09:58:40;;;;;;;6.22;2.53;;;;;;;;;;5052271;28;20527;-63
2022/12/28 10:01:17;;;;;;;5.43;2.78;;;;;;;;;;5036688;28;20053;-64
2022/12/28 10:03:48;;;;;;;5.90;2.58;;;;;;;;;;5053852;28;20053;-64
2022/12/28 10:06:31;;;;;;;6.65;2.80;;;;;;;;;;5075005;28;20053;-63
2022/12/28 10:09:04;;;;;;;6.40;2.78;;;;;;;;;;5072426;28;20057;-64
2022/12/28 10:11:39;;;;;;;5.13;3.17;;;;;;;;;;5039239;28;20064;-64
2022/12/28 10:14:26;;;;;;;7.63;3.08;;;;;;;;;;5052113;28;20053;-64
2022/12/28 10:16:56;;;;;;;15.75;2.92;;;;;;;;;;5035343;28;20693;-64
2022/12/28 10:19:27;;;;;;;4.93;2.80;;;;;;;;;;5052454;28;20428;-63
2022/12/28 10:22:05;;;;;;;5.57;2.85;;;;;;;;;;5052042;28;20052;-63
2022/12/28 10:24:36;;;;;;;5.00;2.85;;;;;;;;;;5002240;28;20053;-64
2022/12/28 10:27:11;;;;;;;7.85;2.55;;;;;;;;;;5018605;28;20053;-64
2022/12/28 10:29:43;;;;;;;9.60;3.10;;;;;;;;;;5036190;28;20068;-64
2022/12/28 10:32:13;;;;;;;6.50;2.60;;;;;;;;;;5051782;28;20615;-64
2022/12/28 10:35:00;;;;;;;5.75;2.80;;;;;;;;;;5031763;28;20061;-64
2022/12/28 10:37:34;;;;;;;5.47;3.00;;;;;;;;;;5031437;28;20053;-64
2022/12/28 10:40:17;;;;;;;7.20;3.25;;;;;;;;;;5031733;28;20599;-64
2022/12/28 10:42:53;;;;;;;4.88;2.70;;;;;;;;;;5031767;28;20049;-64
2022/12/28 10:45:39;;;;;;;10.35;2.88;;;;;;;;;;4998404;28;20045;-65
2022/12/28 10:48:17;;;;;;;5.97;3.00;;;;;;;;;;5015000;28;20509;-64
2022/12/28 10:50:55;;;;;;;7.78;2.92;;;;;;;;;;5000251;28;20060;-64
2022/12/28 10:53:45;;;;;;;5.32;2.83;;;;;;;;;;5050532;28;20055;-64
2022/12/28 10:56:24;;;;;;;6.20;2.83;;;;;;;;;;5051332;28;20049;-64
2022/12/28 10:59:27;;;;;;;8.50;2.83;;;;;;;;;;5051150;28;20048;-64
2022/12/28 11:02:21;;;;;;;6.53;3.22;;;;;;;;;;5051279;28;20064;-65
2022/12/28 11:05:03;;;;;;;5.50;3.10;;;;;;;;;;5051152;28;20456;-64
2022/12/28 11:07:35;;;;;;;6.18;3.20;;;;;;;;;;5050790;28;20140;-64
2022/12/28 11:10:18;;;;;;;5.53;2.85;;;;;;;;;;5051085;28;20560;-64
2022/12/28 11:12:50;;;;;;;5.05;2.88;;;;;;;;;;5079171;28;20060;-64
2022/12/28 11:15:24;;;;;;;6.90;3.20;;;;;;;;;;5057612;28;20543;-64
2022/12/28 11:18:00;;;;;;;7.65;3.65;;;;;;;;;;5091177;28;20060;-65
2022/12/28 11:20:41;;;;;;;9.65;3.42;;;;;;;;;;5091230;28;20044;-64
2022/12/28 11:23:19;;;;;;;6.13;3.25;;;;;;;;;;5057383;28;20507;-65
2022/12/28 11:25:49;;;;;;;7.65;2.92;;;;;;;;;;5057344;28;20040;-65
2022/12/28 11:28:21;;;;;;;6.10;3.38;;;;;;;;;;5090892;28;20059;-65
2022/12/28 11:30:52;;;;;;;6.85;3.08;;;;;;;;;;5090818;28;20063;-64
2022/12/28 11:33:34;;;;;;;8.27;3.30;;;;;;;;;;5030509;28;20053;-65
2022/12/28 11:36:05;;;;;;;6.60;3.30;;;;;;;;;;5024315;28;20520;-64
2022/12/28 11:38:41;;;;;;;5.63;2.97;;;;;;;;;;5013874;28;20528;-66
2022/12/28 11:41:23;;;;;;;6.72;3.50;;;;;;;;;;5030853;28;20052;-65
2022/12/28 11:44:04;;;;;;;7.10;3.22;;;;;;;;;;5014061;28;20509;-66
2022/12/28 11:46:34;;;;;;;6.68;3.10;;;;;;;;;;5030739;28;20049;-65
2022/12/28 11:49:22;;;;;;;6.20;3.28;;;;;;;;;;5030756;28;20612;-64
2022/12/28 11:52:19;;;;;;;7.10;3.45;;;;;;;;;;5030636;28;20069;-65
2022/12/28 11:54:54;;;;;;;5.60;3.10;;;;;;;;;;5030323;28;20553;-64
2022/12/28 11:57:42;;;;;;;5.22;2.80;;;;;;;;;;5013456;28;20057;-65
2022/12/28 12:00:18;;;;;;;8.35;3.08;;;;;;;;;;5014542;28;20053;-65
2022/12/28 12:02:52;;;;;;;;;;;;;;;;;;5030731;28;20397;-65
2022/12/28 12:05:36;;;;;;;8.90;3.05;;;;;;;;;;5030071;28;19928;-65
2022/12/28 12:08:15;;;;;;;4.65;2.70;;;;;;;;;;5029835;28;20064;-66
2022/12/28 12:10:46;;;;;;;5.70;2.75;;;;;;;;;;5046676;28;20048;-65
2022/12/28 12:13:26;;;;;;;6.82;2.85;;;;;;;;;;5075620;28;20529;-65
2022/12/28 12:16:07;;;;;;;6.95;2.75;;;;;;;;;;5072828;28;20077;-65
2022/12/28 12:18:48;;;;;;;5.22;2.50;;;;;;;;;;5050160;28;20053;-64
2022/12/28 12:21:43;;;;;;;4.72;2.38;;;;;;;;;;5086022;28;20051;-65
2022/12/28 12:24:40;;;;;;;4.68;2.42;;;;;;;;;;5089446;28;20040;-65
2022/12/28 12:27:23;;;;;;;3.90;1.92;;;;;;;;;;5089448;28;20518;-65
2022/12/28 12:30:00;;;;;;;4.43;2.22;;;;;;;;;;5088857;28;20051;-64
2022/12/28 12:32:38;;;;;;;4.07;2.03;;;;;;;;;;5091228;28;20055;-64
2022/12/28 12:35:15;;;;;;;4.53;2.30;;;;;;;;;;5056828;28;20585;-64
2022/12/28 12:38:06;;;;;;;4.75;2.58;;;;;;;;;;5091422;28;20044;-64
2022/12/28 12:41:00;;;;;;;;;;;;;;;;;;5092112;28;20055;-64
2022/12/28 12:44:13;;;;;;;4.15;2.00;;;;;;;;;;5071628;28;19921;-64
2022/12/28 12:46:52;;;;;;;4.25;2.03;;;;;;;;;;5071786;28;20053;-65
2022/12/28 12:50:10;;;;;;;4.35;2.25;;;;;;;;;;5049017;28;20059;-65
2022/12/28 12:53:00;;;;;;;4.53;2.03;;;;;;;;;;5088759;28;20171;-65
2022/12/28 12:55:59;;;;;;;4.45;1.80;;;;;;;;;;5038011;28;20047;-65
2022/12/28 12:58:47;;;;;;;4.60;1.88;;;;;;;;;;5015052;28;20053;-64
2022/12/28 13:01:38;;;;;;;3.40;1.70;;;;;;;;;;5016303;28;20049;-64
2022/12/28 13:04:31;;;;;;;2.97;1.75;;;;;;;;;;5011330;28;20417;-64
2022/12/28 13:07:04;;;;;;;3.90;1.73;;;;;;;;;;5018307;28;20505;-64
2022/12/28 13:09:36;;;;;;;4.00;1.95;;;;;;;;;;5001704;28;20050;-64
2022/12/28 13:12:15;;;;;;;4.30;2.13;;;;;;;;;;5014117;28;20061;-64
2022/12/28 13:14:57;;;;;;;3.60;1.70;;;;;;;;;;5006368;28;20057;-64
2022/12/28 13:17:28;;;;;;;4.03;1.90;;;;;;;;;;4972740;28;20061;-64
2022/12/28 13:20:19;;;;;;;4.28;1.58;;;;;;;;;;5013073;28;20048;-64
2022/12/28 13:22:49;;;;;;;;;;;;;;;;;;4959275;28;20045;-65
2022/12/28 13:25:30;;;;;;;4.35;1.90;;;;;;;;;;5015628;28;20341;-65
2022/12/28 13:28:02;;;;;;;3.92;1.90;;;;;;;;;;5021950;28;20065;-65
2022/12/28 13:30:32;;;;;;;3.45;1.95;;;;;;;;;;4978842;28;20453;-65
2022/12/28 13:33:03;;;;;;;4.20;1.90;;;;;;;;;;5049888;28;20041;-65
2022/12/28 13:35:33;;;;;;;3.35;1.90;;;;;;;;;;5077457;28;20059;-65
2022/12/28 13:38:09;;;;;;;4.45;1.95;;;;;;;;;;5103143;28;20051;-64
2022/12/28 13:40:47;;;;;;;4.57;1.88;;;;;;;;;;5059659;28;20057;-64
2022/12/28 13:43:46;;;;;;;4.13;1.90;;;;;;;;;;5068756;28;20053;-64
2022/12/28 13:46:20;;;;;;;3.97;2.00;;;;;;;;;;5063951;28;21314;-63
2022/12/28 13:48:53;;;;;;;3.33;1.80;;;;;;;;;;5065629;28;20033;-64
2022/12/28 13:51:25;;;;;;;6.55;1.90;;;;;;;;;;5063701;28;20053;-64
2022/12/28 13:53:59;;;;;;;3.80;2.28;;;;;;;;;;5057856;28;20036;-64
2022/12/28 13:56:31;;;;;;;4.75;1.75;;;;;;;;;;5032529;28;20058;-64
2022/12/28 13:59:06;;;;;;;3.25;1.52;;;;;;;;;;5032520;28;20539;-64
2022/12/28 14:01:41;;;;;;;3.55;1.38;;;;;;;;;;5002630;28;20060;-65
2022/12/28 14:04:19;;;;;;;2.58;1.27;;;;;;;;;;5053344;28;20053;-64
2022/12/28 14:07:16;;;;;;;2.28;1.17;;;;;;;;;;5063528;28;20049;-65
2022/12/28 14:09:47;;;;;;;1.90;0.93;;;;;;;;;;5033839;28;20049;-65
2022/12/28 14:12:17;;;;;;;2.95;1.40;;;;;;;;;;5066327;28;20057;-66
2022/12/28 14:14:49;;;;;;;2.80;1.25;;;;;;;;;;5046058;28;20053;-65
2022/12/28 14:17:21;;;;;;;4.20;2.00;;;;;;;;;;5068665;28;20056;-65
2022/12/28 14:19:54;;;;;;;3.72;1.08;;;;;;;;;;5031718;28;20045;-65
2022/12/28 14:22:37;;;;;;;2.83;1.00;;;;;;;;;;5015840;28;20065;-65
2022/12/28 14:25:07;;;;;;;1.77;0.98;;;;;;;;;;5032158;28;20056;-65
2022/12/28 14:27:41;;;;;;;2.10;0.98;;;;;;;;;;4972347;28;20058;-66
2022/12/28 14:30:26;;;;;;;1.58;0.95;;;;;;;;;;4961499;28;20084;-65
2022/12/28 14:33:12;;;;;;;1.23;0.88;;;;;;;;;;4978885;28;20502;-65
2022/12/28 14:35:58;;;;;;;1.52;0.80;;;;;;;;;;4979328;28;20049;-65
2022/12/28 14:38:33;;;;;;;1.40;0.80;;;;;;;;;;4975949;28;20062;-65
2022/12/28 14:41:04;;;;;;;1.92;1.00;;;;;;;;;;5007824;28;20054;-64
2022/12/28 14:43:36;;;;;;;1.50;0.80;;;;;;;;;;5007222;28;20097;-65
2022/12/28 14:46:31;;;;;;;2.47;0.90;;;;;;;;;;4997094;28;20050;-65
2022/12/28 14:49:23;;;;;;;1.20;0.85;;;;;;;;;;4966839;28;20066;-64
2022/12/28 14:51:54;;;;;;;3.53;0.77;;;;;;;;;;4967321;28;20487;-65
2022/12/28 14:54:28;;;;;;;2.30;0.88;;;;;;;;;;4955572;28;20058;-65
2022/12/28 14:57:15;;;;;;;2.45;0.70;;;;;;;;;;4957753;28;20053;-65
2022/12/28 14:59:48;;;;;;;1.50;0.90;;;;;;;;;;4972470;28;20046;-65
2022/12/28 15:02:33;;;;;;;1.25;0.60;;;;;;;;;;4970009;28;20042;-64
2022/12/28 15:05:03;;;;;;;1.30;0.82;;;;;;;;;;4996664;28;20124;-66
2022/12/28 15:07:34;;;;;;;1.50;0.60;;;;;;;;;;4998295;28;20096;-64
2022/12/28 15:10:04;;;;;;;1.85;0.50;;;;;;;;;;4998559;28;20448;-64
2022/12/28 15:12:34;;;;;;;1.15;0.60;;;;;;;;;;4981859;28;20556;-65
2022/12/28 15:15:04;;;;;;;3.72;0.50;;;;;;;;;;5031062;28;20069;-64
2022/12/28 15:17:34;;;;;;;1.70;0.80;;;;;;;;;;4982032;28;20064;-64
2022/12/28 15:20:04;;;;;;;0.90;0.70;;;;;;;;;;4994088;28;20050;-65
2022/12/28 15:22:34;;;;;;;1.05;0.70;;;;;;;;;;5011000;28;20062;-64
2022/12/28 15:25:04;;;;;;;2.88;0.70;;;;;;;;;;5013199;28;20064;-63
2022/12/28 15:27:34;;;;;;;1.90;0.68;;;;;;;;;;5014798;28;20049;-62
2022/12/28 15:30:03;;;;;;;1.00;0.80;;;;;;;;;;5050077;28;20053;-62
2022/12/28 15:32:36;;;;;;;3.08;0.63;;;;;;;;;;5050696;28;20678;-63
2022/12/28 15:35:06;;;;;;;1.50;0.50;;;;;;;;;;5013768;28;20057;-63
2022/12/28 15:37:36;;;;;;;1.00;0.60;;;;;;;;;;5030322;28;20053;-64
2022/12/28 15:40:07;;;;;;;1.10;0.60;;;;;;;;;;5031337;28;20049;-62
2022/12/28 15:42:36;;;;;;;0.70;0.45;;;;;;;;;;4994372;28;20060;-63
2022/12/28 15:45:09;;;;;;;0.52;0.40;;;;;;;;;;5026710;28;20056;-63
2022/12/28 15:47:39;;;;;;;1.35;0.52;;;;;;;;;;5012374;28;20061;-62
2022/12/28 15:50:10;;;;;;;3.70;0.55;;;;;;;;;;5006133;28;20752;-63
2022/12/28 15:52:40;;;;;;;1.02;0.43;;;;;;;;;;5009759;28;20061;-63
2022/12/28 15:55:09;;;;;;;1.98;0.60;;;;;;;;;;5029884;28;20068;-63
2022/12/28 15:57:39;;;;;;;2.75;0.60;;;;;;;;;;4993213;28;20049;-62